Time;durP1;ratioP1;P1;durP2;ratioP2;P2;SDS_P1;SDS_P2;PMS_P1;PMS_P2;Temp;Humidity;BMP_temperature;BMP_pressure;BME280_temperature;BME280_humidity;BME280_pressure;Samples;Min_cycle;Max_cycle;Signal;HPM_P1;HPM_P2
2022/01/21 00:00:27;;;;;;;3.50;1.85;;;;;;;16.96;60.98;98894.81;3110748;28;20049;-52
2022/01/21 00:01:59;;;;;;;1.88;1.30;;;;;;;16.93;61.04;98903.22;3109112;28;20046;-52
2022/01/21 00:03:31;;;;;;;1.65;1.17;;;;;;;16.93;60.91;98904.03;3109496;28;20720;-51
2022/01/21 00:05:03;;;;;;;2.40;1.13;;;;;;;16.92;60.94;98898.88;3108426;28;20060;-54
2022/01/21 00:06:38;;;;;;;2.17;1.42;;;;;;;16.91;61.00;98903.44;3109091;28;20053;-53
2022/01/21 00:08:10;;;;;;;3.30;1.25;;;;;;;16.89;61.06;98907.31;3097623;28;20104;-53
2022/01/21 00:09:46;;;;;;;2.92;1.42;;;;;;;16.89;61.05;98912.66;3100486;28;20057;-51
2022/01/21 00:11:30;;;;;;;4.63;1.30;;;;;;;16.87;61.02;98920.88;3096907;28;20058;-50
2022/01/21 00:13:01;;;;;;;2.35;1.02;;;;;;;16.85;61.04;98919.38;3097590;28;20046;-52
2022/01/21 00:14:35;;;;;;;1.75;1.30;;;;;;;16.81;61.04;98916.25;3096933;28;20049;-52
2022/01/21 00:16:08;;;;;;;1.77;1.05;;;;;;;16.81;61.11;98920.78;3098955;28;20185;-50
2022/01/21 00:17:40;;;;;;;2.40;1.90;;;;;;;16.80;61.09;98913.75;3096896;28;20100;-49
2022/01/21 00:19:17;;;;;;;2.38;1.20;;;;;;;16.80;61.15;98919.09;3098237;28;20045;-51
2022/01/21 00:31:51;;;;;;;2.08;1.50;;;;;;;16.68;61.24;98922.22;3106729;28;20311;-49
2022/01/21 00:33:26;;;;;;;1.52;1.42;;;;;;;16.67;61.41;98917.88;3110316;28;20053;-50
2022/01/21 00:34:59;;;;;;;2.55;1.83;;;;;;;16.66;61.21;98924.28;3105699;28;20064;-50
2022/01/21 00:36:32;;;;;;;2.70;1.25;;;;;;;16.64;61.46;98912.06;3106025;28;20050;-52
2022/01/21 00:38:04;;;;;;;3.72;2.05;;;;;;;16.62;61.33;98914.91;3105053;28;20124;-48
2022/01/21 00:39:36;;;;;;;1.65;1.55;;;;;;;16.61;61.38;98913.28;3105015;28;20057;-51
2022/01/21 00:41:09;;;;;;;1.17;1.05;;;;;;;16.60;61.32;98914.25;3108106;28;20045;-49
2022/01/21 00:43:11;;;;;;;2.30;1.25;;;;;;;16.59;61.33;98917.16;3109831;28;20063;-51
2022/01/21 00:44:43;;;;;;;;;;;;;;;16.57;61.31;98909.28;3097802;28;20043;-51
2022/01/21 00:46:16;;;;;;;2.58;1.33;;;;;;;16.55;61.33;98908.66;3112179;28;19964;-53
2022/01/21 00:47:48;;;;;;;2.58;1.50;;;;;;;16.52;61.46;98915.19;3101290;28;20084;-51
2022/01/21 00:49:20;;;;;;;1.92;1.55;;;;;;;16.52;61.49;98915.19;3107003;28;20058;-52
2022/01/21 00:50:52;;;;;;;3.58;1.48;;;;;;;16.51;61.49;98912.69;3107932;28;20050;-52
2022/01/21 00:52:26;;;;;;;4.95;1.40;;;;;;;16.49;61.54;98899.50;3097810;28;20092;-52
2022/01/21 00:54:00;;;;;;;2.88;1.20;;;;;;;16.49;61.54;98904.00;3101637;28;20419;-50
2022/01/21 00:55:32;;;;;;;3.08;1.42;;;;;;;16.49;61.48;98896.84;3108020;28;20045;-50
2022/01/21 00:57:08;;;;;;;4.10;2.08;;;;;;;16.46;61.47;98899.84;3108510;28;20054;-50
2022/01/21 00:58:40;;;;;;;2.28;1.63;;;;;;;16.45;61.39;98902.72;3108742;28;20065;-51
2022/01/21 01:00:15;;;;;;;3.50;1.98;;;;;;;16.43;61.51;98899.41;3107134;28;20055;-53
2022/01/21 01:01:49;;;;;;;2.67;1.35;;;;;;;16.42;61.52;98906.59;3109091;28;20049;-51
2022/01/21 01:03:20;;;;;;;1.63;0.95;;;;;;;16.42;61.48;98903.09;3103500;28;20061;-55
2022/01/21 01:04:53;;;;;;;1.38;1.10;;;;;;;16.39;61.51;98898.94;3106867;28;20393;-51
2022/01/21 01:06:29;;;;;;;1.63;1.20;;;;;;;16.38;61.62;98888.41;3107567;28;20060;-50
2022/01/21 01:08:02;;;;;;;2.05;1.20;;;;;;;16.37;61.51;98889.41;3107226;28;20065;-51
2022/01/21 01:09:35;;;;;;;2.85;1.67;;;;;;;16.35;61.59;98881.56;3096930;28;20066;-53
2022/01/21 01:11:22;;;;;;;2.55;1.45;;;;;;;16.35;61.53;98886.09;3096255;28;20961;-51
2022/01/21 01:13:01;;;;;;;2.65;1.17;;;;;;;16.33;61.53;98874.75;3110213;28;20518;-50
2022/01/21 01:20:06;;;;;;;2.25;1.20;;;;;;;16.27;61.63;98873.63;3110306;28;20041;-50
2022/01/21 01:21:43;;;;;;;1.17;1.05;;;;;;;16.26;61.72;98872.78;3099989;28;20563;-55
2022/01/21 01:23:26;;;;;;;1.88;1.30;;;;;;;16.25;61.60;98867.63;3093547;28;20050;-53
2022/01/21 01:28:41;;;;;;;1.95;1.27;;;;;;;16.21;61.74;98869.81;3112441;28;20515;-51
2022/01/21 01:30:15;;;;;;;1.42;1.33;;;;;;;16.20;61.73;98870.84;3109174;28;20046;-51
2022/01/21 01:31:53;;;;;;;1.65;1.13;;;;;;;16.20;61.66;98873.53;3108479;28;20046;-51
2022/01/21 01:33:35;;;;;;;2.60;1.75;;;;;;;16.18;61.66;98875.53;3107544;28;20058;-51
2022/01/21 01:35:12;;;;;;;2.90;1.38;;;;;;;16.16;61.76;98872.22;3106620;28;20536;-54
2022/01/21 01:36:47;;;;;;;2.22;1.20;;;;;;;16.15;61.71;98875.91;3099271;28;20046;-50
2022/01/21 01:40:17;;;;;;;2.20;1.63;;;;;;;16.13;61.72;98877.09;3106474;28;20076;-51
2022/01/21 01:41:56;;;;;;;1.63;1.30;;;;;;;16.12;61.77;98872.78;3098667;28;20120;-47
2022/01/21 01:51:00;;;;;;;2.30;1.52;;;;;;;16.06;61.71;98869.81;3097944;28;20852;-49
2022/01/21 01:52:32;;;;;;;2.25;1.30;;;;;;;16.04;61.74;98874.50;3097118;28;20053;-52
2022/01/21 01:54:07;;;;;;;2.30;1.17;;;;;;;16.06;61.75;98879.69;3105621;28;20426;-48
2022/01/21 01:55:39;;;;;;;1.75;1.35;;;;;;;16.03;61.82;98880.88;3106898;28;20050;-47
2022/01/21 01:57:11;;;;;;;1.98;1.60;;;;;;;16.02;61.70;98876.53;3095245;28;20055;-54
2022/01/21 01:58:44;;;;;;;0.90;0.82;;;;;;;16.02;61.83;98878.38;3096551;28;20509;-50
2022/01/21 02:00:17;;;;;;;3.15;1.35;;;;;;;16.02;61.71;98873.03;3096683;28;20058;-50
2022/01/21 02:01:54;;;;;;;2.10;0.98;;;;;;;15.99;61.77;98873.38;3094036;28;20046;-51
2022/01/21 02:03:26;;;;;;;3.95;1.20;;;;;;;15.98;61.79;98872.53;3096234;28;20878;-54
2022/01/21 02:04:59;;;;;;;3.15;0.98;;;;;;;15.96;61.77;98877.25;3094753;28;20046;-50
2022/01/21 02:06:34;;;;;;;1.70;1.60;;;;;;;15.96;61.81;98877.25;3094929;28;20057;-52
2022/01/21 02:08:06;;;;;;;1.98;1.00;;;;;;;15.96;61.77;98871.06;3093340;28;20046;-52
2022/01/21 02:09:38;;;;;;;2.47;1.55;;;;;;;15.94;61.71;98873.09;3096045;28;20045;-53
2022/01/21 02:11:10;;;;;;;1.65;1.20;;;;;;;15.94;61.77;98873.09;3099834;28;20138;-52
2022/01/21 02:12:42;;;;;;;1.33;1.20;;;;;;;15.92;61.92;98869.78;3110783;28;20072;-50
2022/01/21 02:14:22;;;;;;;0.80;0.80;;;;;;;15.92;61.79;98877.81;3108474;28;20045;-50
2022/01/21 02:15:59;;;;;;;1.70;1.25;;;;;;;15.91;61.90;98868.09;3095829;28;20054;-53
2022/01/21 02:21:38;;;;;;;1.77;1.10;;;;;;;15.85;62.00;98869.66;3107389;28;20053;-54
2022/01/21 02:23:13;;;;;;;3.55;1.20;;;;;;;15.84;61.99;98873.34;3108464;28;20069;-54
2022/01/21 02:24:49;;;;;;;1.80;1.10;;;;;;;15.81;61.92;98871.84;3105706;28;20639;-53
2022/01/21 02:26:24;;;;;;;1.77;1.38;;;;;;;15.82;61.74;98870.00;3108750;28;20080;-51
2022/01/21 02:27:58;;;;;;;2.08;1.20;;;;;;;15.81;61.99;98869.19;3113790;28;20045;-50
2022/01/21 02:29:32;;;;;;;1.98;1.38;;;;;;;15.81;61.81;98863.00;3110549;28;20045;-50
2022/01/21 02:31:04;;;;;;;4.32;1.55;;;;;;;15.80;61.92;98872.06;3094297;28;20072;-53
2022/01/21 02:32:39;;;;;;;2.30;1.20;;;;;;;15.80;61.76;98866.69;3096766;28;20100;-50
2022/01/21 02:34:11;;;;;;;2.78;0.82;;;;;;;15.79;61.88;98865.03;3103300;28;20569;-54
2022/01/21 02:35:42;;;;;;;1.67;1.33;;;;;;;15.79;61.88;98867.69;3099865;28;20163;-51
2022/01/21 02:37:18;;;;;;;4.47;1.48;;;;;;;15.77;61.85;98867.06;3112529;28;20045;-50
2022/01/21 02:38:50;;;;;;;2.08;1.20;;;;;;;15.76;61.78;98873.41;3111249;28;20045;-48
2022/01/21 02:40:22;;;;;;;3.53;2.40;;;;;;;15.76;61.92;98868.06;3110536;28;20066;-48
2022/01/21 02:41:56;;;;;;;3.95;1.15;;;;;;;15.73;61.99;98866.56;3101370;28;20183;-51
2022/01/21 02:43:28;;;;;;;2.15;1.20;;;;;;;15.74;62.00;98864.72;3112485;28;20061;-52
2022/01/21 02:45:00;;;;;;;1.65;1.50;;;;;;;15.73;61.94;98863.91;3109876;28;20054;-51
2022/01/21 02:46:39;;;;;;;1.95;1.38;;;;;;;15.71;61.89;98859.72;3112342;28;20427;-50
2022/01/21 02:48:11;;;;;;;1.73;1.38;;;;;;;15.70;62.01;98853.56;3111186;28;20049;-53
2022/01/21 02:49:43;;;;;;;2.60;1.48;;;;;;;15.69;62.11;98854.59;3108917;28;20598;-52
2022/01/21 02:51:15;;;;;;;1.83;1.13;;;;;;;15.69;61.96;98859.94;3101848;28;20058;-55
2022/01/21 02:52:57;;;;;;;3.33;1.92;;;;;;;15.67;61.99;98856.56;3110781;28;20054;-50
2022/01/21 02:54:30;;;;;;;2.78;1.20;;;;;;;15.67;61.92;98850.38;3109061;28;20053;-57
2022/01/21 02:56:02;;;;;;;1.55;1.10;;;;;;;15.65;61.89;98847.88;3109023;28;20076;-50
2022/01/21 02:57:34;;;;;;;1.45;1.17;;;;;;;15.64;61.91;98857.75;3101034;28;20054;-54
2022/01/21 02:59:08;;;;;;;2.35;1.30;;;;;;;15.63;62.09;98860.63;3097556;28;20058;-46
2022/01/21 03:00:40;;;;;;;1.42;1.15;;;;;;;15.63;62.12;98860.63;3098433;28;20046;-53
2022/01/21 03:02:13;;;;;;;2.65;1.33;;;;;;;15.63;62.00;98865.97;3104228;28;20104;-48
2022/01/21 03:03:46;;;;;;;2.17;1.25;;;;;;;15.62;61.92;98859.75;3101923;28;20049;-54
2022/01/21 03:05:19;;;;;;;2.28;1.55;;;;;;;15.62;61.98;98853.59;3097662;28;20069;-50
2022/01/21 03:06:51;;;;;;;1.92;1.00;;;;;;;15.59;61.92;98843.25;3106736;28;20076;-47
2022/01/21 03:08:24;;;;;;;1.70;1.55;;;;;;;15.58;62.16;98849.63;3105223;28;20057;-49
2022/01/21 03:09:56;;;;;;;1.33;1.17;;;;;;;15.57;62.02;98842.59;3109909;28;22258;-49
2022/01/21 03:11:31;;;;;;;2.63;1.10;;;;;;;15.57;62.10;98850.63;3111842;28;20064;-50
2022/01/21 03:13:04;;;;;;;1.90;1.05;;;;;;;15.55;62.22;98853.47;3096777;28;20435;-50
2022/01/21 03:14:36;;;;;;;2.55;1.15;;;;;;;15.54;62.00;98846.44;3096773;28;20048;-53
2022/01/21 03:16:07;;;;;;;2.80;1.20;;;;;;;15.53;62.02;98849.31;3109364;28;20436;-53
2022/01/21 03:17:38;;;;;;;1.55;1.45;;;;;;;15.52;62.23;98853.00;3110950;28;20064;-50
2022/01/21 03:19:19;;;;;;;1.48;1.10;;;;;;;15.50;62.26;98850.50;3106120;28;20050;-52
2022/01/21 03:20:52;;;;;;;1.40;0.85;;;;;;;15.50;62.04;98855.03;3108551;28;20376;-51
2022/01/21 03:22:24;;;;;;;1.55;1.13;;;;;;;15.50;62.00;98855.03;3107082;28;20049;-54
2022/01/21 03:24:00;;;;;;;1.80;1.50;;;;;;;15.48;62.12;98849.03;3111221;28;20057;-53
2022/01/21 03:25:34;;;;;;;3.22;1.42;;;;;;;15.46;62.16;98843.88;3111386;28;20045;-53
2022/01/21 03:27:06;;;;;;;1.55;1.05;;;;;;;15.47;62.13;98845.53;3109676;28;20072;-53
2022/01/21 03:28:38;;;;;;;1.30;1.20;;;;;;;15.46;62.14;98846.53;3111189;28;20045;-52
2022/01/21 03:30:11;;;;;;;1.85;1.13;;;;;;;15.45;62.33;98849.38;3108668;28;20050;-50
2022/01/21 03:31:43;;;;;;;2.22;1.08;;;;;;;15.44;62.23;98853.06;3108123;28;20051;-54
2022/01/21 03:33:18;;;;;;;2.13;1.13;;;;;;;15.42;62.19;98854.06;3107944;28;20057;-55
2022/01/21 03:34:52;;;;;;;2.85;1.48;;;;;;;15.41;62.17;98852.41;3107969;28;20708;-51
2022/01/21 03:36:27;;;;;;;3.15;1.60;;;;;;;15.39;62.14;98854.41;3103235;28;20677;-51
2022/01/21 03:37:59;;;;;;;1.50;1.02;;;;;;;15.39;62.46;98843.72;3104959;28;20046;-52
2022/01/21 03:39:32;;;;;;;1.40;1.13;;;;;;;15.39;62.11;98848.25;3108470;28;20049;-51
2022/01/21 03:41:07;;;;;;;1.45;1.00;;;;;;;15.38;62.21;98847.41;3109258;28;20046;-53
2022/01/21 03:42:39;;;;;;;1.85;1.30;;;;;;;15.38;62.32;98847.41;3100821;28;20061;-49
2022/01/21 03:44:11;;;;;;;2.17;1.00;;;;;;;15.37;62.32;98848.41;3104687;28;20038;-51
2022/01/21 03:45:43;;;;;;;1.77;1.08;;;;;;;15.38;62.62;98844.75;3103894;28;20625;-55
2022/01/21 03:47:14;;;;;;;1.83;1.23;;;;;;;15.40;62.33;98845.38;3111366;28;20137;-50
2022/01/21 03:48:49;;;;;;;3.60;1.20;;;;;;;15.41;62.47;98846.25;3109426;28;20427;-52
2022/01/21 03:50:24;;;;;;;1.63;1.10;;;;;;;15.41;62.38;98847.06;3112562;28;20100;-50
2022/01/21 03:51:57;;;;;;;1.35;0.88;;;;;;;15.41;62.29;98844.38;3098007;28;20046;-48
2022/01/21 03:53:29;;;;;;;1.73;0.95;;;;;;;15.42;62.47;98847.88;3096012;28;20582;-51
2022/01/21 03:55:02;;;;;;;2.20;1.02;;;;;;;15.41;62.20;98857.75;3106892;28;20503;-51
2022/01/21 03:56:35;;;;;;;1.63;1.25;;;;;;;15.44;62.53;98858.41;3110243;28;20073;-50
2022/01/21 03:58:11;;;;;;;2.63;1.35;;;;;;;15.43;62.34;98849.53;3110086;28;20050;-54
2022/01/21 03:59:46;;;;;;;2.15;1.48;;;;;;;15.42;62.34;98851.38;3110645;28;20049;-51
2022/01/21 04:01:19;;;;;;;2.15;1.20;;;;;;;15.43;62.07;98849.53;3108037;28;20511;-52
2022/01/21 04:02:53;;;;;;;1.88;1.70;;;;;;;15.42;62.25;98838.03;3108089;28;20049;-48
2022/01/21 04:04:25;;;;;;;1.55;1.05;;;;;;;15.42;62.45;98842.53;3111043;28;20679;-54
2022/01/21 04:05:58;;;;;;;1.90;1.30;;;;;;;15.44;62.24;98845.88;3099959;28;20046;-53
2022/01/21 04:07:29;;;;;;;1.85;1.17;;;;;;;15.42;62.31;98851.38;3110862;28;20495;-53
2022/01/21 04:09:01;;;;;;;3.67;1.73;;;;;;;15.43;62.33;98844.19;3110057;28;20050;-50
2022/01/21 04:10:39;;;;;;;0.93;0.85;;;;;;;15.42;62.35;98843.38;3108870;28;20045;-53
2022/01/21 04:12:11;;;;;;;1.90;1.20;;;;;;;15.42;62.20;98843.38;3107764;28;20184;-47
2022/01/21 04:13:45;;;;;;;2.08;1.20;;;;;;;15.41;62.18;98847.06;3106501;28;20049;-51
2022/01/21 04:15:20;;;;;;;1.38;1.27;;;;;;;15.42;62.04;98839.88;3105488;28;20062;-51
2022/01/21 04:16:53;;;;;;;1.67;1.40;;;;;;;15.41;62.17;98847.06;3110820;28;20724;-48
2022/01/21 04:18:30;;;;;;;1.83;1.02;;;;;;;15.41;62.22;98840.91;3102963;28;20400;-52
2022/01/21 04:20:08;;;;;;;2.47;1.20;;;;;;;15.40;62.31;98842.72;3095622;28;20392;-52
2022/01/21 04:21:42;;;;;;;1.25;1.05;;;;;;;15.41;62.19;98848.91;3106129;28;20536;-51
2022/01/21 04:23:14;;;;;;;1.90;1.65;;;;;;;15.39;62.29;98846.41;3107072;28;20046;-54
2022/01/21 04:24:48;;;;;;;4.65;1.35;;;;;;;15.41;62.28;98854.25;3106912;28;20072;-51
2022/01/21 04:26:21;;;;;;;1.63;1.10;;;;;;;15.40;62.31;98860.59;3111632;28;20057;-49
2022/01/21 04:27:55;;;;;;;1.45;1.25;;;;;;;15.39;62.40;98854.41;3105657;28;20046;-49
2022/01/21 04:29:30;;;;;;;1.70;1.00;;;;;;;15.38;62.25;98858.13;3103776;28;20440;-50
2022/01/21 04:31:02;;;;;;;1.20;1.10;;;;;;;15.37;62.20;98864.44;3107081;28;20108;-50
2022/01/21 04:32:34;;;;;;;1.55;1.17;;;;;;;15.39;62.20;98864.28;3100121;28;20501;-51
2022/01/21 04:34:06;;;;;;;1.73;1.15;;;;;;;15.38;62.27;98867.97;3095513;28;20535;-51
2022/01/21 04:35:45;;;;;;;1.20;1.10;;;;;;;15.37;62.21;98861.78;3097955;28;20096;-55
2022/01/21 04:37:19;;;;;;;1.27;1.17;;;;;;;15.36;62.29;98857.44;3110740;28;20076;-54
2022/01/21 04:38:54;;;;;;;1.75;1.10;;;;;;;15.37;62.27;98856.44;3108512;28;20045;-50
2022/01/21 04:40:29;;;;;;;0.70;0.70;;;;;;;15.37;62.00;98852.94;3110107;28;20041;-52
2022/01/21 04:47:30;;;;;;;1.70;1.30;;;;;;;15.33;62.20;98848.97;3111546;28;20069;-53
2022/01/21 04:49:02;;;;;;;1.52;0.80;;;;;;;15.33;62.32;98852.47;3110793;28;20078;-51
2022/01/21 04:50:40;;;;;;;2.67;1.08;;;;;;;15.33;62.28;98852.47;3106244;28;20053;-51
2022/01/21 04:52:12;;;;;;;3.97;1.35;;;;;;;15.32;62.27;98856.16;3110901;28;20539;-51
2022/01/21 04:53:49;;;;;;;2.63;1.70;;;;;;;15.31;62.22;98862.50;3103465;28;20045;-53
2022/01/21 04:55:20;;;;;;;1.25;1.05;;;;;;;15.31;62.21;98857.13;3106810;28;20718;-54
2022/01/21 04:56:51;;;;;;;1.92;1.60;;;;;;;15.31;62.21;98857.13;3108854;28;20048;-53
2022/01/21 04:58:25;;;;;;;2.90;1.73;;;;;;;15.30;62.32;98852.81;3106664;28;20041;-53
2022/01/21 04:59:59;;;;;;;3.38;1.35;;;;;;;15.29;62.33;98848.47;3111349;28;20057;-52
2022/01/21 05:01:34;;;;;;;1.67;1.30;;;;;;;15.29;62.15;98858.31;3107288;28;20060;-52
2022/01/21 05:03:06;;;;;;;2.80;1.70;;;;;;;15.29;62.36;98864.50;3110606;28;20100;-52
2022/01/21 05:04:38;;;;;;;1.48;1.08;;;;;;;15.28;62.14;98856.69;3108315;28;20053;-54
2022/01/21 05:06:10;;;;;;;0.98;0.85;;;;;;;15.27;62.33;98853.19;3097468;28;20038;-53
2022/01/21 05:07:42;;;;;;;1.65;1.30;;;;;;;15.29;62.14;98851.13;3095445;28;20050;-54
2022/01/21 05:09:16;;;;;;;1.27;0.82;;;;;;;15.30;62.25;98843.97;3100744;28;20050;-55
2022/01/21 05:10:48;;;;;;;2.67;1.50;;;;;;;15.33;62.23;98849.78;3098104;28;20487;-49
2022/01/21 05:12:22;;;;;;;1.25;1.13;;;;;;;15.39;62.23;98853.59;3103915;28;20057;-51
2022/01/21 05:13:58;;;;;;;1.00;0.80;;;;;;;15.45;62.33;98852.06;3100300;28;20037;-52
2022/01/21 05:15:44;;;;;;;1.33;1.00;;;;;;;15.53;62.13;98860.00;3101870;28;20488;-53
2022/01/21 05:17:16;;;;;;;1.02;0.90;;;;;;;15.60;61.98;98856.47;3107808;28;20052;-52
2022/01/21 05:18:47;;;;;;;0.75;0.73;;;;;;;15.66;61.83;98857.59;3105694;28;20092;-47
2022/01/21 05:20:19;;;;;;;2.03;1.00;;;;;;;15.75;61.93;98858.38;3103928;28;20167;-51
2022/01/21 05:21:54;;;;;;;1.10;0.90;;;;;;;15.80;61.73;98859.50;3105831;28;20161;-51
2022/01/21 05:23:27;;;;;;;1.25;0.88;;;;;;;15.85;61.65;98857.13;3109546;28;20306;-52
2022/01/21 05:24:59;;;;;;;1.83;1.10;;;;;;;15.92;61.54;98856.41;3109043;28;20099;-55
2022/01/21 05:26:36;;;;;;;1.40;1.23;;;;;;;15.98;61.48;98861.03;3109313;28;20069;-51
2022/01/21 05:28:08;;;;;;;1.00;1.00;;;;;;;16.03;61.40;98862.13;3098006;28;20050;-52
2022/01/21 05:29:42;;;;;;;2.38;1.13;;;;;;;16.09;61.38;98860.59;3096972;28;20861;-51
2022/01/21 05:31:14;;;;;;;1.13;1.00;;;;;;;16.14;61.35;98870.75;3098615;28;20046;-55
2022/01/21 05:32:48;;;;;;;1.55;1.45;;;;;;;16.20;61.33;98862.00;3095066;28;20075;-50
2022/01/21 05:34:23;;;;;;;1.40;1.10;;;;;;;16.26;61.15;98867.44;3107246;28;20065;-54
2022/01/21 05:35:55;;;;;;;0.70;0.60;;;;;;;16.31;60.93;98866.91;3108005;28;20073;-51
2022/01/21 05:37:27;;;;;;;2.90;1.13;;;;;;;16.36;60.89;98866.34;3107174;28;20615;-48
2022/01/21 05:39:03;;;;;;;1.23;1.00;;;;;;;16.39;60.93;98871.34;3105922;28;20056;-50
2022/01/21 05:40:36;;;;;;;1.45;0.90;;;;;;;16.41;60.90;98870.16;3094823;28;20108;-50
2022/01/21 05:42:08;;;;;;;1.33;1.00;;;;;;;16.45;60.78;98881.31;3097449;28;20049;-55
2022/01/21 05:43:45;;;;;;;1.65;1.35;;;;;;;16.49;60.73;98883.44;3110984;28;20045;-47
2022/01/21 05:47:08;;;;;;;1.30;0.82;;;;;;;16.53;60.66;98883.91;3102551;28;20078;-50
2022/01/21 05:48:44;;;;;;;2.38;1.50;;;;;;;16.56;60.69;98894.25;3103818;28;20049;-50
2022/01/21 05:50:16;;;;;;;1.58;1.08;;;;;;;16.57;60.56;98895.88;3107375;28;20054;-55
2022/01/21 05:51:48;;;;;;;3.75;1.00;;;;;;;16.60;60.58;98897.38;3101111;28;20108;-46
2022/01/21 05:53:23;;;;;;;2.20;1.55;;;;;;;16.62;60.69;98898.03;3095517;28;20042;-50
2022/01/21 05:54:55;;;;;;;0.52;0.50;;;;;;;16.63;60.52;98900.53;3105516;28;20046;-50
2022/01/21 05:56:27;;;;;;;0.70;0.70;;;;;;;16.66;60.52;98899.31;3103459;28;20085;-52
2022/01/21 05:57:59;;;;;;;0.82;0.82;;;;;;;16.69;60.47;98902.47;3105879;28;20064;-49
2022/01/21 05:59:30;;;;;;;2.38;0.82;;;;;;;16.72;60.48;98907.47;3107965;28;20486;-50
2022/01/21 06:01:07;;;;;;;1.23;1.10;;;;;;;16.75;60.43;98914.28;3096294;28;20042;-50
2022/01/21 06:02:39;;;;;;;1.05;0.80;;;;;;;16.80;60.29;98911.06;3096592;28;20053;-52
2022/01/21 06:04:14;;;;;;;1.08;0.68;;;;;;;16.83;60.26;98918.75;3102585;28;20052;-49
2022/01/21 06:05:46;;;;;;;1.38;0.88;;;;;;;16.85;60.20;98906.00;3104636;28;20053;-49
2022/01/21 06:07:21;;;;;;;1.67;1.27;;;;;;;16.86;60.23;98916.53;3105808;28;20065;-47
2022/01/21 06:08:53;;;;;;;1.52;1.05;;;;;;;16.89;60.11;98920.69;3106425;28;20493;-53
2022/01/21 06:10:25;;;;;;;1.55;1.10;;;;;;;16.91;60.25;98929.34;3112783;28;20065;-56
2022/01/21 06:11:56;;;;;;;0.93;0.90;;;;;;;16.91;60.24;98927.53;3105598;28;20056;-52
2022/01/21 06:13:31;;;;;;;1.42;1.17;;;;;;;16.93;60.05;98932.69;3110284;28;20104;-53
2022/01/21 06:15:04;;;;;;;0.80;0.80;;;;;;;16.94;60.14;98926.34;3110147;28;20048;-53
2022/01/21 06:16:38;;;;;;;1.88;1.10;;;;;;;16.92;60.22;98929.19;3105163;28;20049;-53
2022/01/21 06:18:10;;;;;;;0.98;0.85;;;;;;;16.95;60.13;98925.31;3095897;28;20050;-48
2022/01/21 06:19:42;;;;;;;2.22;1.30;;;;;;;16.95;60.10;98930.66;3099767;28;20895;-52
2022/01/21 06:21:14;;;;;;;1.95;1.10;;;;;;;16.96;60.09;98929.63;3098626;28;20091;-53
2022/01/21 06:22:48;;;;;;;1.80;0.90;;;;;;;16.98;60.11;98930.28;3093577;28;20053;-54
2022/01/21 06:24:19;;;;;;;1.38;0.82;;;;;;;16.96;60.09;98932.31;3096801;28;20097;-53
2022/01/21 06:25:54;;;;;;;1.70;1.02;;;;;;;16.97;60.10;98936.69;3095245;28;20062;-52
2022/01/21 06:27:27;;;;;;;0.70;0.70;;;;;;;16.97;60.09;98940.19;3097208;28;20049;-52
2022/01/21 06:29:01;;;;;;;1.48;1.13;;;;;;;16.97;60.19;98944.72;3098675;28;20042;-51
2022/01/21 06:30:33;;;;;;;1.20;1.10;;;;;;;16.97;60.12;98942.88;3101192;28;20046;-52
2022/01/21 06:32:15;;;;;;;0.98;0.82;;;;;;;17.00;59.89;98954.25;3104462;28;20053;-53
2022/01/21 06:33:49;;;;;;;;;;;;;;;16.97;60.03;98947.41;3107312;28;20056;-48
2022/01/21 06:35:20;;;;;;;1.85;0.88;;;;;;;16.97;60.05;98950.06;3110539;28;19925;-52
2022/01/21 06:36:52;;;;;;;1.77;0.90;;;;;;;16.98;59.97;98949.06;3100145;28;20054;-53
2022/01/21 06:38:25;;;;;;;2.35;1.10;;;;;;;16.96;59.95;98948.41;3096946;28;20562;-54
2022/01/21 06:39:56;;;;;;;0.93;0.80;;;;;;;16.97;59.95;98939.34;3098175;28;20663;-48
2022/01/21 06:41:28;;;;;;;1.17;0.82;;;;;;;16.96;59.97;98945.72;3095404;28;20053;-53
2022/01/21 06:43:03;;;;;;;1.20;0.98;;;;;;;16.95;60.04;98958.28;3109246;28;20924;-50
2022/01/21 06:44:35;;;;;;;3.25;0.95;;;;;;;16.95;60.03;98954.78;3113443;28;20052;-52
2022/01/21 06:46:09;;;;;;;1.20;0.82;;;;;;;16.94;60.06;98948.59;3098105;28;20652;-52
2022/01/21 06:47:43;;;;;;;1.48;0.80;;;;;;;16.94;60.03;98947.78;3101131;28;20049;-53
2022/01/21 06:49:17;;;;;;;1.02;0.77;;;;;;;16.93;59.98;98949.59;3108456;28;20057;-50
2022/01/21 06:50:48;;;;;;;1.23;1.00;;;;;;;16.94;60.14;98950.44;3103342;28;20050;-50
2022/01/21 06:52:21;;;;;;;2.70;1.08;;;;;;;16.92;60.05;98958.66;3109628;28;20381;-50
2022/01/21 06:53:55;;;;;;;0.90;0.70;;;;;;;16.91;59.96;98958.84;3108866;28;20049;-49
2022/01/21 06:55:27;;;;;;;2.03;1.08;;;;;;;16.90;59.98;98955.31;3098191;28;20053;-52
2022/01/21 06:56:59;;;;;;;1.67;1.05;;;;;;;16.91;60.04;98961.50;3096201;28;20405;-54
2022/01/21 06:58:34;;;;;;;1.65;0.80;;;;;;;16.89;59.93;98959.03;3095982;28;20057;-52
2022/01/21 07:00:16;;;;;;;1.45;0.90;;;;;;;16.89;60.11;98964.38;3098722;28;20049;-51
2022/01/21 07:01:48;;;;;;;0.80;0.60;;;;;;;16.87;60.05;98966.41;3109104;28;20053;-48
2022/01/21 07:03:21;;;;;;;1.98;1.00;;;;;;;16.87;60.16;98979.81;3103194;28;20052;-51
2022/01/21 07:04:53;;;;;;;1.20;0.77;;;;;;;16.88;60.11;98980.63;3106251;28;20048;-53
2022/01/21 07:06:27;;;;;;;0.77;0.77;;;;;;;16.89;60.04;98985.00;3111121;28;20056;-52
2022/01/21 07:08:00;;;;;;;1.17;1.00;;;;;;;16.89;60.02;98985.00;3107252;28;20085;-53
2022/01/21 07:09:32;;;;;;;0.90;0.80;;;;;;;16.90;60.02;98982.13;3104990;28;20180;-50
2022/01/21 07:11:04;;;;;;;0.80;0.70;;;;;;;16.90;59.97;98981.28;3108944;28;20046;-52
2022/01/21 07:12:36;;;;;;;1.67;0.80;;;;;;;16.91;60.05;98989.16;3106405;28;20057;-50
2022/01/21 07:14:08;;;;;;;1.15;0.68;;;;;;;16.90;59.97;98987.47;3111206;28;20543;-53
2022/01/21 07:15:40;;;;;;;2.25;1.48;;;;;;;16.90;60.08;98994.69;3100695;28;20050;-49
2022/01/21 07:17:12;;;;;;;1.17;0.88;;;;;;;16.89;60.04;98990.34;3095034;28;20153;-51
2022/01/21 07:18:48;;;;;;;1.08;0.57;;;;;;;16.89;60.12;98995.72;3094864;28;20732;-52
2022/01/21 07:20:21;;;;;;;0.77;0.68;;;;;;;16.90;60.10;99002.72;3099322;28;20054;-53
2022/01/21 07:21:53;;;;;;;1.70;0.90;;;;;;;16.89;60.02;99001.06;3106144;28;20053;-51
2022/01/21 07:23:25;;;;;;;2.15;0.80;;;;;;;16.87;60.08;99001.25;3100782;28;20055;-48
2022/01/21 07:24:57;;;;;;;0.60;0.60;;;;;;;16.88;59.93;99005.59;3109572;28;20476;-51
2022/01/21 07:26:33;;;;;;;1.00;0.70;;;;;;;16.88;59.91;99010.09;3107985;28;20057;-51
2022/01/21 07:28:05;;;;;;;0.80;0.68;;;;;;;16.89;59.94;99011.78;3097719;28;21172;-51
2022/01/21 07:29:37;;;;;;;0.70;0.70;;;;;;;16.88;60.01;99013.66;3096511;28;20046;-51
2022/01/21 07:31:09;;;;;;;0.82;0.63;;;;;;;16.87;60.12;99017.31;3095687;28;20069;-54
2022/01/21 07:32:44;;;;;;;1.48;0.90;;;;;;;16.88;59.99;99007.44;3098592;28;20042;-51
2022/01/21 07:34:18;;;;;;;2.28;1.00;;;;;;;16.87;60.00;99011.13;3109123;28;20053;-52
2022/01/21 07:35:50;;;;;;;1.45;1.05;;;;;;;16.87;59.97;99016.50;3105640;28;20057;-49
2022/01/21 07:37:21;;;;;;;1.85;0.77;;;;;;;16.85;60.07;99010.47;3109364;28;20104;-53
2022/01/21 07:38:56;;;;;;;1.25;0.60;;;;;;;16.86;60.00;99014.84;3098941;28;20091;-52
2022/01/21 07:40:28;;;;;;;2.38;0.90;;;;;;;16.83;60.13;99018.72;3100985;28;20057;-49
2022/01/21 07:42:00;;;;;;;0.55;0.55;;;;;;;16.83;60.13;99020.56;3095837;28;20050;-51
2022/01/21 07:43:32;;;;;;;0.77;0.75;;;;;;;16.83;60.01;99023.25;3107185;28;20125;-51
2022/01/21 07:45:07;;;;;;;1.73;0.80;;;;;;;16.81;60.21;99019.91;3096318;28;20065;-50
2022/01/21 07:46:40;;;;;;;1.48;0.77;;;;;;;16.80;60.05;99028.94;3109259;28;20057;-52
2022/01/21 07:48:14;;;;;;;1.58;0.77;;;;;;;16.79;60.19;99032.63;3096367;28;20042;-54
2022/01/21 07:49:49;;;;;;;1.77;0.93;;;;;;;16.78;60.11;99031.00;3107234;28;20119;-54
2022/01/21 07:51:21;;;;;;;1.00;0.80;;;;;;;16.77;60.12;99026.63;3100200;28;20057;-50
2022/01/21 07:52:53;;;;;;;1.33;0.93;;;;;;;16.75;60.25;99030.28;3092926;28;20054;-54
2022/01/21 07:54:25;;;;;;;1.45;0.80;;;;;;;16.74;60.14;99031.31;3099796;28;21360;-51
2022/01/21 07:55:57;;;;;;;0.88;0.70;;;;;;;16.73;60.24;99028.81;3106852;28;21096;-47
2022/01/21 07:57:29;;;;;;;1.00;0.82;;;;;;;16.73;60.18;99036.84;3106468;28;20049;-55
2022/01/21 07:59:01;;;;;;;0.70;0.50;;;;;;;16.73;60.17;99039.53;3107093;28;20057;-53
2022/01/21 08:00:33;;;;;;;0.95;0.73;;;;;;;16.73;60.15;99036.84;3103095;28;20120;-52
2022/01/21 08:02:06;;;;;;;1.08;1.00;;;;;;;16.71;60.28;99026.31;3104428;28;20487;-56